My Meet Scores
Kendall Bonnema, Flipstar Gymnastics Academy - MyMeetScores.com
Top100 | Top Teams | Upcoming Meets | Completed Meets | Latest | Add Scores | Help| Support | Bookmark and Share

Kendall Bonnema, Flipstar Gymnastics Academy
Personal Bests
LevelVault BarsBeamFloorAA
39.6009.250 9.3259.40037.300
49.4009.650 9.7759.62538.075
69.0509.375 9.6759.50037.550
79.3759.450 9.6259.65037.675
Meet Scores
Date Meet Team Session Level Division Vault Bars Beam Floor AA
2020-02-28 MEGA Spring Invite 2020 Flipstar Gymnastics Academy 3 7 Junior B 9.200 7 9.450 4 9.625 3T 9.400 1T 37.675 1
2020-02-21 Kinetic Classic Flipstar Gymnastics Academy 02 7 Middle 9.375 4T 8.300 39 9.400 4T 9.650 1 36.725 16
2020-01-24 King Arthur Invitational Flipstar Gymnastics Academy 2 7 JR B 9.050 5T 9.175 5 9.325 5 9.600 1 37.150 4
2019-12-13 Crossroads Classic Flipstar Gymnastics Academy 5 7 Junior 9.150 6 7.500 15 9.275 5 9.300 8 35.225 11
2019-12-07 Home for the Holidays 2019 Flipstar Gymnastics Academy 6 7 Middle 9.000 4T 9.150 5 9.450 2 9.625 3 37.225 2
2019-03-15 Illinois State Championship Level 6,9,10 Flipstar Gymnastics Academy 12 6 Jr E 9.000 13T 9.375 6 9.675 2 9.500 6T 37.550 4
2019-02-23 Kinetic Classic 2019 Flipstar Gymnastics Academy 1 6 Younger 9.050 5 9.175 6 9.650 2 9.425 8T 37.300 2
2019-02-08 Midwest Twisters Harley Meet Womens Flipstar Gymnastics Academy O09 6 11 yrs. 8.950 2 9.000 3T 9.425 2 9.400 3T 36.775 1
2019-01-11 Circle of Stars Gymnastics Flipstar Gymnastics Academy B09 6 Junior B 8.850 24T 8.850 29T 9.300 8T 9.250 8T 36.250 13
2018-12-07 Horton Invite Flipstar Gymnastics Academy All 6 Ch 8.650 5T 8.500 14 9.475 2 9.200 7T 35.825 7
2018-03-08 Level 4 & 5 State Flipstar Gymnastics Academy All 4 Jr B 9.000 9 9.125 12 9.775 2 9.450 3 37.350 3T
2018-02-23 Kinetic Classic Flipstar Gymnastics Academy 7 4 Middle 9.000 4T 9.200 16 9.700 2 9.500 4 37.400 2
2018-02-16 Big Classic Flipstar Gymnastics Academy 7B 4 Child C 9.400 3 9.650 2 9.400 8 9.625 2 38.075 2
2018-02-09 IGI Chicago Style Gymnastics Meet Flipstar Gymnastics Academy 2 4 211 Lake Shore Dr L4 C 8.900 4 9.200 3 9.775 2 9.400 3 37.275 3
2017-12-08 Horton Invite At IWU Shirk Center Flipstar Gymnastics Academy All 4 Jr A 8.625 12 9.175 6 9.475 5 9.300 5 36.575 7
2017-11-17 SCGA Classic Flipstar Gymnastics Academy 2 4 JrB 9.350 3 9.100 4 8.925 7 9.150 5 36.525 4
2017-11-10 Illinois NAWGJ Judges Cup 2017 Flipstar Gymnastics Academy G3 4 All Ages 9.100 9 8.950 27 9.600 1 9.275 2 36.925 3
2017-02-24 Kinetic Classic Flipstar Gymnastics Academy 5,6 4 All Ages 9.050 29T 8.375 94T 9.425 17T 9.400 9T 36.250 43T
2017-02-17 Big Classic Flipstar Gymnastics Academy B 4 Child B 8.950 9T 8.950 22T 9.350 5T 9.050 12T 36.300 10T
2017-02-10 IGI Chicago Style Gymnastics Meet Flipstar Gymnastics Academy 633L 4 JrA 8.900 14 8.300 17 9.575 5 9.000 15 35.775 14
2016-12-09 Horton Invitational Flipstar Gymnastics Academy 2 4 JrB 8.450 12 7.950 15 8.775 8 8.700 9 33.875 14
2016-11-11 2016 Illinois Judges Cup Flipstar Gymnastics Academy R4 4 9 Year Old 8.475 7 7.650 8 9.200 4 9.000 5 34.325 5
2016-03-04 2016 Illinois Level 3 State Championships Flipstar Gymnastics Academy 3 Youth-B 9.600 6 9.250 7 9.050 3 9.400 3 37.300 3
2016-01-22 King Arthur Invitational Flipstar Gymnastics Academy S13 3 Jr.B 9.400 1 9.125 5 9.325 3 9.250 3 37.100 2
Get your scores on
a t-shirt, pin, or hoodie

www.lazysuits.com